sensor_id;sensor_type;location;lat;lon;timestamp;temperature;humidity
23591;DHT22;11973;52.098;7.582;2023-02-04T00:00:56;6.40;99.90
23591;DHT22;11973;52.098;7.582;2023-02-04T00:03:22;6.40;99.90
23591;DHT22;11973;52.098;7.582;2023-02-04T00:05:48;6.40;99.90
23591;DHT22;11973;52.098;7.582;2023-02-04T00:08:13;6.60;99.90
23591;DHT22;11973;52.098;7.582;2023-02-04T00:10:39;6.30;99.90
23591;DHT22;11973;52.098;7.582;2023-02-04T00:13:05;6.40;99.90
23591;DHT22;11973;52.098;7.582;2023-02-04T00:15:31;6.30;99.90
23591;DHT22;11973;52.098;7.582;2023-02-04T00:17:57;6.20;99.90
23591;DHT22;11973;52.098;7.582;2023-02-04T00:20:23;6.20;99.90
23591;DHT22;11973;52.098;7.582;2023-02-04T00:22:49;6.20;99.90
23591;DHT22;11973;52.098;7.582;2023-02-04T00:25:15;6.20;99.90
23591;DHT22;11973;52.098;7.582;2023-02-04T00:27:41;6.10;99.90
23591;DHT22;11973;52.098;7.582;2023-02-04T00:30:08;6.10;99.90
23591;DHT22;11973;52.098;7.582;2023-02-04T00:32:34;6.10;99.90
23591;DHT22;11973;52.098;7.582;2023-02-04T00:34:59;6.10;99.90
23591;DHT22;11973;52.098;7.582;2023-02-04T00:37:29;6.00;99.90
23591;DHT22;11973;52.098;7.582;2023-02-04T00:39:56;6.10;99.90
23591;DHT22;11973;52.098;7.582;2023-02-04T00:42:22;5.90;99.90
23591;DHT22;11973;52.098;7.582;2023-02-04T00:44:47;5.90;99.90
23591;DHT22;11973;52.098;7.582;2023-02-04T00:47:13;5.90;99.90
23591;DHT22;11973;52.098;7.582;2023-02-04T00:49:39;5.90;99.90
23591;DHT22;11973;52.098;7.582;2023-02-04T00:52:05;5.90;99.90
23591;DHT22;11973;52.098;7.582;2023-02-04T00:54:30;5.80;99.90
23591;DHT22;11973;52.098;7.582;2023-02-04T00:56:56;5.80;99.90
23591;DHT22;11973;52.098;7.582;2023-02-04T00:59:22;6.00;99.90
23591;DHT22;11973;52.098;7.582;2023-02-04T01:01:48;5.80;99.90
23591;DHT22;11973;52.098;7.582;2023-02-04T01:04:16;6.00;99.90
23591;DHT22;11973;52.098;7.582;2023-02-04T01:06:42;5.90;99.90
23591;DHT22;11973;52.098;7.582;2023-02-04T01:09:09;5.90;99.90
23591;DHT22;11973;52.098;7.582;2023-02-04T01:11:36;6.10;99.90
23591;DHT22;11973;52.098;7.582;2023-02-04T01:14:02;5.90;99.90
23591;DHT22;11973;52.098;7.582;2023-02-04T01:16:28;5.90;99.90
23591;DHT22;11973;52.098;7.582;2023-02-04T01:18:53;5.90;99.90
23591;DHT22;11973;52.098;7.582;2023-02-04T01:21:24;5.90;99.90
23591;DHT22;11973;52.098;7.582;2023-02-04T01:23:50;5.90;99.90
23591;DHT22;11973;52.098;7.582;2023-02-04T01:26:17;5.90;99.90
23591;DHT22;11973;52.098;7.582;2023-02-04T01:28:43;6.20;99.90
23591;DHT22;11973;52.098;7.582;2023-02-04T01:31:09;5.90;99.90
23591;DHT22;11973;52.098;7.582;2023-02-04T01:33:35;6.00;99.90
23591;DHT22;11973;52.098;7.582;2023-02-04T01:36:01;6.20;99.90
23591;DHT22;11973;52.098;7.582;2023-02-04T01:38:28;6.00;99.90
23591;DHT22;11973;52.098;7.582;2023-02-04T01:40:54;6.20;99.90
23591;DHT22;11973;52.098;7.582;2023-02-04T01:43:22;6.10;99.90
23591;DHT22;11973;52.098;7.582;2023-02-04T01:45:48;6.10;99.90
23591;DHT22;11973;52.098;7.582;2023-02-04T01:48:15;6.10;99.90
23591;DHT22;11973;52.098;7.582;2023-02-04T01:51:00;6.20;99.90
23591;DHT22;11973;52.098;7.582;2023-02-04T01:53:26;6.10;99.90
23591;DHT22;11973;52.098;7.582;2023-02-04T01:55:52;6.40;99.90
23591;DHT22;11973;52.098;7.582;2023-02-04T01:58:18;6.40;99.90
23591;DHT22;11973;52.098;7.582;2023-02-04T02:00:44;6.20;99.90
23591;DHT22;11973;52.098;7.582;2023-02-04T02:03:10;6.20;99.90
23591;DHT22;11973;52.098;7.582;2023-02-04T02:05:43;6.20;99.90
23591;DHT22;11973;52.098;7.582;2023-02-04T02:08:10;6.20;99.90
23591;DHT22;11973;52.098;7.582;2023-02-04T02:10:38;6.20;99.90
23591;DHT22;11973;52.098;7.582;2023-02-04T02:13:05;6.20;99.90
23591;DHT22;11973;52.098;7.582;2023-02-04T02:15:37;6.20;99.90
23591;DHT22;11973;52.098;7.582;2023-02-04T02:18:05;6.30;99.90
23591;DHT22;11973;52.098;7.582;2023-02-04T02:20:31;6.20;99.90
23591;DHT22;11973;52.098;7.582;2023-02-04T02:25:44;6.30;99.90
23591;DHT22;11973;52.098;7.582;2023-02-04T02:28:16;6.30;99.90
23591;DHT22;11973;52.098;7.582;2023-02-04T02:30:42;6.40;99.90
23591;DHT22;11973;52.098;7.582;2023-02-04T02:33:17;6.30;99.90
23591;DHT22;11973;52.098;7.582;2023-02-04T02:35:45;6.30;99.90
23591;DHT22;11973;52.098;7.582;2023-02-04T02:38:14;6.30;99.90
23591;DHT22;11973;52.098;7.582;2023-02-04T02:40:41;6.30;99.90
23591;DHT22;11973;52.098;7.582;2023-02-04T02:43:10;6.30;99.90
23591;DHT22;11973;52.098;7.582;2023-02-04T02:45:39;6.30;99.90
23591;DHT22;11973;52.098;7.582;2023-02-04T02:48:05;6.30;99.90
23591;DHT22;11973;52.098;7.582;2023-02-04T02:50:32;6.30;99.90
23591;DHT22;11973;52.098;7.582;2023-02-04T02:52:59;6.50;99.90
23591;DHT22;11973;52.098;7.582;2023-02-04T02:55:26;6.50;99.90
23591;DHT22;11973;52.098;7.582;2023-02-04T02:57:53;6.30;99.90
23591;DHT22;11973;52.098;7.582;2023-02-04T03:00:25;6.30;99.90
23591;DHT22;11973;52.098;7.582;2023-02-04T03:03:14;6.30;99.90
23591;DHT22;11973;52.098;7.582;2023-02-04T03:05:44;6.30;99.90
23591;DHT22;11973;52.098;7.582;2023-02-04T03:08:13;6.30;99.90
23591;DHT22;11973;52.098;7.582;2023-02-04T03:10:40;6.30;99.90
23591;DHT22;11973;52.098;7.582;2023-02-04T03:13:06;6.50;99.90
23591;DHT22;11973;52.098;7.582;2023-02-04T03:15:32;6.20;99.90
23591;DHT22;11973;52.098;7.582;2023-02-04T03:17:58;6.20;99.90
23591;DHT22;11973;52.098;7.582;2023-02-04T03:20:27;6.20;99.90
23591;DHT22;11973;52.098;7.582;2023-02-04T03:22:53;6.20;99.90
23591;DHT22;11973;52.098;7.582;2023-02-04T03:25:20;6.30;99.90
23591;DHT22;11973;52.098;7.582;2023-02-04T03:27:54;6.20;99.90
23591;DHT22;11973;52.098;7.582;2023-02-04T03:30:20;6.20;99.90
23591;DHT22;11973;52.098;7.582;2023-02-04T03:32:46;6.20;99.90
23591;DHT22;11973;52.098;7.582;2023-02-04T03:35:12;6.40;99.90
23591;DHT22;11973;52.098;7.582;2023-02-04T03:37:38;6.30;99.90
23591;DHT22;11973;52.098;7.582;2023-02-04T03:40:05;6.20;99.90
23591;DHT22;11973;52.098;7.582;2023-02-04T03:42:31;6.20;99.90
23591;DHT22;11973;52.098;7.582;2023-02-04T03:44:56;6.20;99.90
23591;DHT22;11973;52.098;7.582;2023-02-04T03:47:22;6.40;99.90
23591;DHT22;11973;52.098;7.582;2023-02-04T03:49:48;6.20;99.90
23591;DHT22;11973;52.098;7.582;2023-02-04T03:52:13;6.20;99.90
23591;DHT22;11973;52.098;7.582;2023-02-04T03:54:39;6.20;99.90
23591;DHT22;11973;52.098;7.582;2023-02-04T03:57:05;6.40;99.90
23591;DHT22;11973;52.098;7.582;2023-02-04T03:59:30;6.20;99.90
23591;DHT22;11973;52.098;7.582;2023-02-04T04:01:56;6.20;99.90
23591;DHT22;11973;52.098;7.582;2023-02-04T04:04:22;6.40;99.90
23591;DHT22;11973;52.098;7.582;2023-02-04T04:06:48;6.30;99.90
23591;DHT22;11973;52.098;7.582;2023-02-04T04:09:14;6.30;99.90
23591;DHT22;11973;52.098;7.582;2023-02-04T04:11:39;6.20;99.90
23591;DHT22;11973;52.098;7.582;2023-02-04T04:14:05;6.20;99.90
23591;DHT22;11973;52.098;7.582;2023-02-04T04:16:31;6.10;99.90
23591;DHT22;11973;52.098;7.582;2023-02-04T04:18:56;6.30;99.90
23591;DHT22;11973;52.098;7.582;2023-02-04T04:21:22;6.10;99.90
23591;DHT22;11973;52.098;7.582;2023-02-04T04:23:48;6.10;99.90
23591;DHT22;11973;52.098;7.582;2023-02-04T04:26:13;6.30;99.90
23591;DHT22;11973;52.098;7.582;2023-02-04T04:28:39;6.20;99.90
23591;DHT22;11973;52.098;7.582;2023-02-04T04:31:05;6.10;99.90
23591;DHT22;11973;52.098;7.582;2023-02-04T04:33:31;6.10;99.90
23591;DHT22;11973;52.098;7.582;2023-02-04T04:35:56;6.20;99.90
23591;DHT22;11973;52.098;7.582;2023-02-04T04:38:22;6.30;99.90
23591;DHT22;11973;52.098;7.582;2023-02-04T04:40:48;6.20;99.90
23591;DHT22;11973;52.098;7.582;2023-02-04T04:43:14;6.20;99.90
23591;DHT22;11973;52.098;7.582;2023-02-04T04:45:40;6.20;99.90
23591;DHT22;11973;52.098;7.582;2023-02-04T04:48:05;6.50;99.90
23591;DHT22;11973;52.098;7.582;2023-02-04T04:50:31;6.30;99.90
23591;DHT22;11973;52.098;7.582;2023-02-04T04:52:57;6.50;99.90
23591;DHT22;11973;52.098;7.582;2023-02-04T04:55:22;6.50;99.90
23591;DHT22;11973;52.098;7.582;2023-02-04T04:57:48;6.50;99.90
23591;DHT22;11973;52.098;7.582;2023-02-04T05:00:19;6.30;99.90
23591;DHT22;11973;52.098;7.582;2023-02-04T05:02:45;6.30;99.90
23591;DHT22;11973;52.098;7.582;2023-02-04T05:05:12;6.30;99.90
23591;DHT22;11973;52.098;7.582;2023-02-04T05:07:38;6.20;99.90
23591;DHT22;11973;52.098;7.582;2023-02-04T05:10:04;6.30;99.90
23591;DHT22;11973;52.098;7.582;2023-02-04T05:12:30;6.30;99.90
23591;DHT22;11973;52.098;7.582;2023-02-04T05:14:56;6.30;99.90
23591;DHT22;11973;52.098;7.582;2023-02-04T05:17:22;6.50;99.90
23591;DHT22;11973;52.098;7.582;2023-02-04T05:19:47;6.40;99.90
23591;DHT22;11973;52.098;7.582;2023-02-04T05:22:13;6.40;99.90
23591;DHT22;11973;52.098;7.582;2023-02-04T05:24:39;6.40;99.90
23591;DHT22;11973;52.098;7.582;2023-02-04T05:27:04;6.50;99.90
23591;DHT22;11973;52.098;7.582;2023-02-04T05:29:30;6.30;99.90
23591;DHT22;11973;52.098;7.582;2023-02-04T06:17:50;6.20;99.90
23591;DHT22;11973;52.098;7.582;2023-02-04T06:20:17;6.30;99.90
23591;DHT22;11973;52.098;7.582;2023-02-04T06:22:43;6.20;99.90
23591;DHT22;11973;52.098;7.582;2023-02-04T06:25:09;6.20;99.90
23591;DHT22;11973;52.098;7.582;2023-02-04T06:27:34;6.20;99.90
23591;DHT22;11973;52.098;7.582;2023-02-04T06:30:00;6.20;99.90
23591;DHT22;11973;52.098;7.582;2023-02-04T06:32:26;6.20;99.90
23591;DHT22;11973;52.098;7.582;2023-02-04T06:34:51;6.20;99.90
23591;DHT22;11973;52.098;7.582;2023-02-04T06:37:17;6.20;99.90
23591;DHT22;11973;52.098;7.582;2023-02-04T06:39:43;6.10;99.90
23591;DHT22;11973;52.098;7.582;2023-02-04T06:42:09;6.10;99.90
23591;DHT22;11973;52.098;7.582;2023-02-04T06:44:34;6.10;99.90
23591;DHT22;11973;52.098;7.582;2023-02-04T06:47:00;6.00;99.90
23591;DHT22;11973;52.098;7.582;2023-02-04T06:49:26;6.00;99.90
23591;DHT22;11973;52.098;7.582;2023-02-04T06:51:51;6.00;99.90
23591;DHT22;11973;52.098;7.582;2023-02-04T06:54:17;6.00;99.90
23591;DHT22;11973;52.098;7.582;2023-02-04T06:56:43;6.00;99.90
23591;DHT22;11973;52.098;7.582;2023-02-04T06:59:09;5.90;99.90
23591;DHT22;11973;52.098;7.582;2023-02-04T07:01:35;5.90;99.90
23591;DHT22;11973;52.098;7.582;2023-02-04T07:04:01;5.90;99.90
23591;DHT22;11973;52.098;7.582;2023-02-04T07:06:27;5.90;99.90
23591;DHT22;11973;52.098;7.582;2023-02-04T07:08:52;5.90;99.90
23591;DHT22;11973;52.098;7.582;2023-02-04T07:11:18;5.90;99.90
23591;DHT22;11973;52.098;7.582;2023-02-04T07:13:44;5.90;99.90
23591;DHT22;11973;52.098;7.582;2023-02-04T07:16:09;5.90;99.90
23591;DHT22;11973;52.098;7.582;2023-02-04T07:18:35;5.90;99.90
23591;DHT22;11973;52.098;7.582;2023-02-04T07:21:01;5.90;99.90
23591;DHT22;11973;52.098;7.582;2023-02-04T07:23:27;5.80;99.90
23591;DHT22;11973;52.098;7.582;2023-02-04T07:25:53;5.80;99.90
23591;DHT22;11973;52.098;7.582;2023-02-04T07:28:20;5.80;99.90
23591;DHT22;11973;52.098;7.582;2023-02-04T07:30:46;5.90;99.90
23591;DHT22;11973;52.098;7.582;2023-02-04T07:33:12;5.90;99.90
23591;DHT22;11973;52.098;7.582;2023-02-04T07:35:38;5.90;99.90
23591;DHT22;11973;52.098;7.582;2023-02-04T07:38:04;5.90;99.90
23591;DHT22;11973;52.098;7.582;2023-02-04T07:40:30;5.90;99.90
23591;DHT22;11973;52.098;7.582;2023-02-04T07:42:56;6.00;99.90
23591;DHT22;11973;52.098;7.582;2023-02-04T07:45:23;6.00;99.90
23591;DHT22;11973;52.098;7.582;2023-02-04T07:47:48;6.00;99.90
23591;DHT22;11973;52.098;7.582;2023-02-04T07:50:14;6.00;99.90
23591;DHT22;11973;52.098;7.582;2023-02-04T07:52:40;6.00;99.90
23591;DHT22;11973;52.098;7.582;2023-02-04T07:55:07;6.10;99.90
23591;DHT22;11973;52.098;7.582;2023-02-04T07:57:33;6.10;99.90
23591;DHT22;11973;52.098;7.582;2023-02-04T07:59:59;6.10;99.90
23591;DHT22;11973;52.098;7.582;2023-02-04T08:02:24;6.10;99.90
23591;DHT22;11973;52.098;7.582;2023-02-04T08:04:51;6.10;99.90
23591;DHT22;11973;52.098;7.582;2023-02-04T08:07:17;6.20;99.90
23591;DHT22;11973;52.098;7.582;2023-02-04T08:09:42;6.20;99.90
23591;DHT22;11973;52.098;7.582;2023-02-04T08:12:08;6.20;99.90
23591;DHT22;11973;52.098;7.582;2023-02-04T08:14:34;6.20;99.90
23591;DHT22;11973;52.098;7.582;2023-02-04T08:17:00;6.30;99.90
23591;DHT22;11973;52.098;7.582;2023-02-04T08:19:26;6.40;99.90
23591;DHT22;11973;52.098;7.582;2023-02-04T08:21:51;6.30;99.90
23591;DHT22;11973;52.098;7.582;2023-02-04T08:24:18;6.30;99.90
23591;DHT22;11973;52.098;7.582;2023-02-04T08:26:44;6.40;99.90
23591;DHT22;11973;52.098;7.582;2023-02-04T08:29:10;6.40;99.90
23591;DHT22;11973;52.098;7.582;2023-02-04T08:31:36;6.40;99.90
23591;DHT22;11973;52.098;7.582;2023-02-04T08:34:03;6.40;99.90
23591;DHT22;11973;52.098;7.582;2023-02-04T08:36:29;6.40;99.90
23591;DHT22;11973;52.098;7.582;2023-02-04T08:38:55;6.40;99.90
23591;DHT22;11973;52.098;7.582;2023-02-04T08:41:21;6.40;99.90
23591;DHT22;11973;52.098;7.582;2023-02-04T08:43:47;6.50;99.90
23591;DHT22;11973;52.098;7.582;2023-02-04T08:46:13;6.50;99.90
23591;DHT22;11973;52.098;7.582;2023-02-04T08:48:38;6.60;99.90
23591;DHT22;11973;52.098;7.582;2023-02-04T08:51:04;6.60;99.90
23591;DHT22;11973;52.098;7.582;2023-02-04T08:53:30;6.70;99.90
23591;DHT22;11973;52.098;7.582;2023-02-04T08:55:55;6.70;99.90
23591;DHT22;11973;52.098;7.582;2023-02-04T08:58:21;6.80;99.90
23591;DHT22;11973;52.098;7.582;2023-02-04T09:00:47;6.90;99.90
23591;DHT22;11973;52.098;7.582;2023-02-04T09:03:13;6.90;99.90
23591;DHT22;11973;52.098;7.582;2023-02-04T09:05:39;6.90;99.90
23591;DHT22;11973;52.098;7.582;2023-02-04T09:08:04;6.90;99.90
23591;DHT22;11973;52.098;7.582;2023-02-04T09:10:31;7.00;99.90
23591;DHT22;11973;52.098;7.582;2023-02-04T09:12:57;7.00;99.90
23591;DHT22;11973;52.098;7.582;2023-02-04T09:15:23;7.00;99.90
23591;DHT22;11973;52.098;7.582;2023-02-04T09:17:50;7.00;99.90
23591;DHT22;11973;52.098;7.582;2023-02-04T09:20:18;7.00;99.90
23591;DHT22;11973;52.098;7.582;2023-02-04T09:22:43;7.10;99.90
23591;DHT22;11973;52.098;7.582;2023-02-04T09:25:09;7.10;99.90
23591;DHT22;11973;52.098;7.582;2023-02-04T09:27:35;7.20;99.90
23591;DHT22;11973;52.098;7.582;2023-02-04T09:30:00;7.30;99.90
23591;DHT22;11973;52.098;7.582;2023-02-04T09:32:26;7.30;99.90
23591;DHT22;11973;52.098;7.582;2023-02-04T09:34:52;7.50;99.90
23591;DHT22;11973;52.098;7.582;2023-02-04T09:37:18;7.40;99.90
23591;DHT22;11973;52.098;7.582;2023-02-04T09:39:43;7.40;99.90
23591;DHT22;11973;52.098;7.582;2023-02-04T09:42:13;7.50;99.90
23591;DHT22;11973;52.098;7.582;2023-02-04T09:44:39;7.50;99.90
23591;DHT22;11973;52.098;7.582;2023-02-04T09:47:05;7.50;99.90
23591;DHT22;11973;52.098;7.582;2023-02-04T09:49:31;7.50;99.90
23591;DHT22;11973;52.098;7.582;2023-02-04T09:51:57;7.50;99.90
23591;DHT22;11973;52.098;7.582;2023-02-04T09:54:24;7.60;99.90
23591;DHT22;11973;52.098;7.582;2023-02-04T09:56:51;7.60;99.90
23591;DHT22;11973;52.098;7.582;2023-02-04T09:59:22;7.60;99.90
23591;DHT22;11973;52.098;7.582;2023-02-04T10:01:56;7.70;99.90
23591;DHT22;11973;52.098;7.582;2023-02-04T10:04:24;7.70;99.90
23591;DHT22;11973;52.098;7.582;2023-02-04T10:06:50;7.70;99.90
23591;DHT22;11973;52.098;7.582;2023-02-04T10:09:16;7.80;99.90
23591;DHT22;11973;52.098;7.582;2023-02-04T10:11:43;7.90;99.90
23591;DHT22;11973;52.098;7.582;2023-02-04T10:14:19;7.90;99.90
23591;DHT22;11973;52.098;7.582;2023-02-04T10:16:51;8.00;99.90
23591;DHT22;11973;52.098;7.582;2023-02-04T10:19:18;8.00;99.90
23591;DHT22;11973;52.098;7.582;2023-02-04T10:21:45;8.10;99.90
23591;DHT22;11973;52.098;7.582;2023-02-04T10:24:22;8.20;99.90
23591;DHT22;11973;52.098;7.582;2023-02-04T10:26:53;8.20;99.90
23591;DHT22;11973;52.098;7.582;2023-02-04T10:29:21;8.20;99.90
23591;DHT22;11973;52.098;7.582;2023-02-04T10:31:50;8.30;99.90
23591;DHT22;11973;52.098;7.582;2023-02-04T10:34:37;8.30;99.90
23591;DHT22;11973;52.098;7.582;2023-02-04T10:37:20;8.30;99.90
23591;DHT22;11973;52.098;7.582;2023-02-04T10:39:46;8.40;99.90
23591;DHT22;11973;52.098;7.582;2023-02-04T10:42:22;8.40;99.90
23591;DHT22;11973;52.098;7.582;2023-02-04T10:44:48;8.40;99.90
23591;DHT22;11973;52.098;7.582;2023-02-04T10:47:23;8.40;99.90
23591;DHT22;11973;52.098;7.582;2023-02-04T10:50:03;8.40;99.90
23591;DHT22;11973;52.098;7.582;2023-02-04T10:52:36;8.40;99.90
23591;DHT22;11973;52.098;7.582;2023-02-04T10:55:04;8.40;99.90
23591;DHT22;11973;52.098;7.582;2023-02-04T10:57:34;8.40;99.90
23591;DHT22;11973;52.098;7.582;2023-02-04T11:00:05;8.50;99.90
23591;DHT22;11973;52.098;7.582;2023-02-04T11:02:35;8.50;99.90
23591;DHT22;11973;52.098;7.582;2023-02-04T11:05:03;8.50;99.90
23591;DHT22;11973;52.098;7.582;2023-02-04T11:07:29;8.60;99.90
23591;DHT22;11973;52.098;7.582;2023-02-04T11:09:55;8.60;99.90
23591;DHT22;11973;52.098;7.582;2023-02-04T11:12:41;8.70;99.90
23591;DHT22;11973;52.098;7.582;2023-02-04T11:18:07;8.80;99.90
23591;DHT22;11973;52.098;7.582;2023-02-04T11:20:34;8.90;99.90
23591;DHT22;11973;52.098;7.582;2023-02-04T11:26:16;9.00;99.90
23591;DHT22;11973;52.098;7.582;2023-02-04T11:33:45;9.20;99.90
23591;DHT22;11973;52.098;7.582;2023-02-04T11:36:13;9.20;99.90
23591;DHT22;11973;52.098;7.582;2023-02-04T11:38:45;9.30;99.90
23591;DHT22;11973;52.098;7.582;2023-02-04T11:41:17;9.30;99.90
23591;DHT22;11973;52.098;7.582;2023-02-04T11:43:44;9.40;99.90
23591;DHT22;11973;52.098;7.582;2023-02-04T11:46:15;9.40;99.90
23591;DHT22;11973;52.098;7.582;2023-02-04T11:48:42;9.40;99.90
23591;DHT22;11973;52.098;7.582;2023-02-04T11:51:13;9.40;99.90
23591;DHT22;11973;52.098;7.582;2023-02-04T11:53:40;9.50;99.90
23591;DHT22;11973;52.098;7.582;2023-02-04T11:56:06;9.50;99.90
23591;DHT22;11973;52.098;7.582;2023-02-04T11:58:32;9.50;99.90
23591;DHT22;11973;52.098;7.582;2023-02-04T12:00:58;9.60;99.90
23591;DHT22;11973;52.098;7.582;2023-02-04T12:03:29;9.70;99.90
23591;DHT22;11973;52.098;7.582;2023-02-04T12:05:55;9.80;99.90
23591;DHT22;11973;52.098;7.582;2023-02-04T12:11:08;9.90;99.90
23591;DHT22;11973;52.098;7.582;2023-02-04T12:13:48;10.00;99.90
23591;DHT22;11973;52.098;7.582;2023-02-04T12:16:14;10.10;99.90
23591;DHT22;11973;52.098;7.582;2023-02-04T12:18:40;10.10;99.90
23591;DHT22;11973;52.098;7.582;2023-02-04T12:21:06;10.20;99.90
23591;DHT22;11973;52.098;7.582;2023-02-04T12:23:31;10.20;99.90
23591;DHT22;11973;52.098;7.582;2023-02-04T12:25:57;10.30;99.90
23591;DHT22;11973;52.098;7.582;2023-02-04T12:28:23;10.20;99.90
23591;DHT22;11973;52.098;7.582;2023-02-04T12:30:49;10.30;99.90
23591;DHT22;11973;52.098;7.582;2023-02-04T12:33:15;10.20;99.90
23591;DHT22;11973;52.098;7.582;2023-02-04T12:35:41;10.30;99.90
23591;DHT22;11973;52.098;7.582;2023-02-04T12:38:07;10.20;99.90
23591;DHT22;11973;52.098;7.582;2023-02-04T12:40:34;10.20;99.90
23591;DHT22;11973;52.098;7.582;2023-02-04T12:42:59;10.20;99.90
23591;DHT22;11973;52.098;7.582;2023-02-04T12:45:25;10.20;99.90
23591;DHT22;11973;52.098;7.582;2023-02-04T12:47:51;10.10;99.90
23591;DHT22;11973;52.098;7.582;2023-02-04T12:50:18;10.10;99.90
23591;DHT22;11973;52.098;7.582;2023-02-04T12:52:49;10.00;99.90
23591;DHT22;11973;52.098;7.582;2023-02-04T12:55:15;9.90;99.90
23591;DHT22;11973;52.098;7.582;2023-02-04T12:57:40;9.90;99.90
23591;DHT22;11973;52.098;7.582;2023-02-04T13:00:07;9.80;99.90
23591;DHT22;11973;52.098;7.582;2023-02-04T13:02:33;9.80;99.90
23591;DHT22;11973;52.098;7.582;2023-02-04T13:04:58;9.80;99.90
23591;DHT22;11973;52.098;7.582;2023-02-04T13:07:24;9.80;99.90
23591;DHT22;11973;52.098;7.582;2023-02-04T13:09:50;9.70;99.90
23591;DHT22;11973;52.098;7.582;2023-02-04T13:12:16;9.60;99.90
23591;DHT22;11973;52.098;7.582;2023-02-04T13:14:42;9.60;99.90
23591;DHT22;11973;52.098;7.582;2023-02-04T13:17:09;9.60;99.90
23591;DHT22;11973;52.098;7.582;2023-02-04T13:19:35;9.60;99.90
23591;DHT22;11973;52.098;7.582;2023-02-04T13:22:01;9.70;99.90
23591;DHT22;11973;52.098;7.582;2023-02-04T13:24:27;9.70;99.90
23591;DHT22;11973;52.098;7.582;2023-02-04T13:26:53;9.80;99.90
23591;DHT22;11973;52.098;7.582;2023-02-04T13:29:18;9.80;99.90
23591;DHT22;11973;52.098;7.582;2023-02-04T13:31:46;9.90;99.90
23591;DHT22;11973;52.098;7.582;2023-02-04T13:34:12;9.90;99.90
23591;DHT22;11973;52.098;7.582;2023-02-04T13:36:37;10.00;99.90
23591;DHT22;11973;52.098;7.582;2023-02-04T13:39:03;10.10;99.90
23591;DHT22;11973;52.098;7.582;2023-02-04T13:41:29;10.10;99.90
23591;DHT22;11973;52.098;7.582;2023-02-04T13:43:55;10.10;99.90
23591;DHT22;11973;52.098;7.582;2023-02-04T13:46:22;10.20;99.90
23591;DHT22;11973;52.098;7.582;2023-02-04T13:48:48;10.20;99.90
23591;DHT22;11973;52.098;7.582;2023-02-04T13:51:15;10.20;99.90
23591;DHT22;11973;52.098;7.582;2023-02-04T13:53:41;10.20;99.90
23591;DHT22;11973;52.098;7.582;2023-02-04T13:56:07;10.20;99.90
23591;DHT22;11973;52.098;7.582;2023-02-04T13:58:32;10.20;99.90
23591;DHT22;11973;52.098;7.582;2023-02-04T14:00:58;10.20;99.90
23591;DHT22;11973;52.098;7.582;2023-02-04T14:03:25;10.20;99.90
23591;DHT22;11973;52.098;7.582;2023-02-04T14:05:51;10.20;99.90
23591;DHT22;11973;52.098;7.582;2023-02-04T14:08:17;10.10;99.90
23591;DHT22;11973;52.098;7.582;2023-02-04T14:10:43;10.10;99.90
23591;DHT22;11973;52.098;7.582;2023-02-04T14:13:09;10.10;99.90
23591;DHT22;11973;52.098;7.582;2023-02-04T14:15:34;10.30;99.90
23591;DHT22;11973;52.098;7.582;2023-02-04T14:18:03;10.10;99.90
23591;DHT22;11973;52.098;7.582;2023-02-04T14:20:29;10.20;99.90
23591;DHT22;11973;52.098;7.582;2023-02-04T14:22:55;10.20;99.90
23591;DHT22;11973;52.098;7.582;2023-02-04T14:25:21;10.30;99.90
23591;DHT22;11973;52.098;7.582;2023-02-04T14:27:47;10.30;99.90
23591;DHT22;11973;52.098;7.582;2023-02-04T14:30:18;10.50;99.90
23591;DHT22;11973;52.098;7.582;2023-02-04T14:32:44;10.40;99.90
23591;DHT22;11973;52.098;7.582;2023-02-04T14:35:10;10.30;99.90
23591;DHT22;11973;52.098;7.582;2023-02-04T14:37:35;10.30;99.90
23591;DHT22;11973;52.098;7.582;2023-02-04T14:40:01;10.30;99.90
23591;DHT22;11973;52.098;7.582;2023-02-04T14:42:27;10.30;99.90
23591;DHT22;11973;52.098;7.582;2023-02-04T14:44:52;10.20;99.90
23591;DHT22;11973;52.098;7.582;2023-02-04T14:47:18;10.20;99.90
23591;DHT22;11973;52.098;7.582;2023-02-04T14:49:44;10.20;99.90
23591;DHT22;11973;52.098;7.582;2023-02-04T14:52:10;10.10;99.90
23591;DHT22;11973;52.098;7.582;2023-02-04T14:54:37;10.10;99.90
23591;DHT22;11973;52.098;7.582;2023-02-04T14:57:03;10.00;99.90
23591;DHT22;11973;52.098;7.582;2023-02-04T14:59:28;10.00;99.90
23591;DHT22;11973;52.098;7.582;2023-02-04T15:01:54;9.90;99.90
23591;DHT22;11973;52.098;7.582;2023-02-04T15:04:20;9.80;99.90
23591;DHT22;11973;52.098;7.582;2023-02-04T15:06:46;9.70;99.90
23591;DHT22;11973;52.098;7.582;2023-02-04T15:09:12;9.70;99.90
23591;DHT22;11973;52.098;7.582;2023-02-04T15:11:37;9.60;99.90
23591;DHT22;11973;52.098;7.582;2023-02-04T15:14:03;9.50;99.90
23591;DHT22;11973;52.098;7.582;2023-02-04T15:16:29;9.40;99.90
23591;DHT22;11973;52.098;7.582;2023-02-04T15:18:54;9.40;99.90
23591;DHT22;11973;52.098;7.582;2023-02-04T15:21:20;9.30;99.90
23591;DHT22;11973;52.098;7.582;2023-02-04T15:23:46;9.30;99.90
23591;DHT22;11973;52.098;7.582;2023-02-04T15:26:15;9.30;99.90
23591;DHT22;11973;52.098;7.582;2023-02-04T15:28:41;9.30;99.90
23591;DHT22;11973;52.098;7.582;2023-02-04T15:31:06;9.30;99.90
23591;DHT22;11973;52.098;7.582;2023-02-04T15:33:32;9.30;99.90
23591;DHT22;11973;52.098;7.582;2023-02-04T15:35:58;9.30;99.90
23591;DHT22;11973;52.098;7.582;2023-02-04T15:38:23;9.30;99.90
23591;DHT22;11973;52.098;7.582;2023-02-04T15:40:49;9.30;99.90
23591;DHT22;11973;52.098;7.582;2023-02-04T15:43:15;9.20;99.90
23591;DHT22;11973;52.098;7.582;2023-02-04T15:45:41;9.20;99.90
23591;DHT22;11973;52.098;7.582;2023-02-04T15:48:09;9.20;99.90
23591;DHT22;11973;52.098;7.582;2023-02-04T15:50:36;9.10;99.90
23591;DHT22;11973;52.098;7.582;2023-02-04T15:53:02;9.00;99.90
23591;DHT22;11973;52.098;7.582;2023-02-04T15:55:28;8.90;99.90
23591;DHT22;11973;52.098;7.582;2023-02-04T15:57:54;8.80;99.90
23591;DHT22;11973;52.098;7.582;2023-02-04T16:00:20;8.70;99.90
23591;DHT22;11973;52.098;7.582;2023-02-04T16:02:45;8.60;99.90
23591;DHT22;11973;52.098;7.582;2023-02-04T16:05:11;8.50;99.90
23591;DHT22;11973;52.098;7.582;2023-02-04T16:07:37;8.30;99.90
23591;DHT22;11973;52.098;7.582;2023-02-04T16:10:03;8.20;99.90
23591;DHT22;11973;52.098;7.582;2023-02-04T16:12:29;8.10;99.90
23591;DHT22;11973;52.098;7.582;2023-02-04T16:14:54;7.90;99.90
23591;DHT22;11973;52.098;7.582;2023-02-04T16:17:20;7.80;99.90
23591;DHT22;11973;52.098;7.582;2023-02-04T16:19:46;7.70;99.90
23591;DHT22;11973;52.098;7.582;2023-02-04T16:22:11;7.60;99.90
23591;DHT22;11973;52.098;7.582;2023-02-04T16:24:37;7.40;99.90
23591;DHT22;11973;52.098;7.582;2023-02-04T16:27:03;7.40;99.90
23591;DHT22;11973;52.098;7.582;2023-02-04T16:29:29;7.20;99.90
23591;DHT22;11973;52.098;7.582;2023-02-04T16:31:54;7.10;99.90
23591;DHT22;11973;52.098;7.582;2023-02-04T16:34:23;7.00;99.90
23591;DHT22;11973;52.098;7.582;2023-02-04T16:36:48;6.80;99.90
23591;DHT22;11973;52.098;7.582;2023-02-04T16:39:15;6.80;99.90
23591;DHT22;11973;52.098;7.582;2023-02-04T16:41:41;6.70;99.90
23591;DHT22;11973;52.098;7.582;2023-02-04T16:44:06;6.50;99.90